createdAt,value
2023-05-15T00:02:22.558Z,101617.63
2023-05-15T00:04:49.200Z,101608.94
2023-05-15T00:07:15.604Z,101615.53
2023-05-15T00:09:41.972Z,101607.72
2023-05-15T00:12:08.751Z,101608.06
2023-05-15T00:14:35.414Z,101602.63
2023-05-15T00:17:01.890Z,101600.69
2023-05-15T00:19:28.375Z,101601.84
2023-05-15T00:21:55.486Z,101598.69
2023-05-15T00:24:22.065Z,101595.06
2023-05-15T00:26:48.578Z,101605.75
2023-05-15T00:29:14.984Z,101604.97
2023-05-15T00:31:41.470Z,101607.59
2023-05-15T00:34:08.031Z,101596.63
2023-05-15T00:36:34.538Z,101603.44
2023-05-15T00:39:01.194Z,101592.72
2023-05-15T00:41:32.044Z,101592.63
2023-05-15T00:44:00.717Z,101591.03
2023-05-15T00:46:28.782Z,101587.09
2023-05-15T00:48:56.290Z,101583.47
2023-05-15T00:51:23.025Z,101589.28
2023-05-15T00:53:52.545Z,101583.72
2023-05-15T00:56:20.181Z,101580.13
2023-05-15T00:58:50.000Z,101584.31
2023-05-15T01:01:17.729Z,101576.88
2023-05-15T01:03:44.574Z,101577.22
2023-05-15T01:06:11.382Z,101574.84
2023-05-15T01:08:47.088Z,101581.84
2023-05-15T01:11:15.262Z,101582.97
2023-05-15T01:13:42.002Z,101577.00
2023-05-15T01:16:09.743Z,101572.94
2023-05-15T01:18:36.641Z,101581.06
2023-05-15T01:21:05.894Z,101578.38
2023-05-15T01:24:04.120Z,101574.00
2023-05-15T01:27:01.043Z,101571.03
2023-05-15T01:29:32.497Z,101587.53
2023-05-15T01:32:03.159Z,101576.00
2023-05-15T01:34:41.950Z,101559.41
2023-05-15T01:37:11.389Z,101558.28
2023-05-15T01:39:41.519Z,101559.66
2023-05-15T01:42:10.000Z,101551.53
2023-05-15T01:44:40.561Z,101561.22
2023-05-15T01:47:12.800Z,101560.66
2023-05-15T01:49:40.454Z,101563.94
2023-05-15T01:52:13.422Z,101554.47
2023-05-15T01:54:40.431Z,101553.66
2023-05-15T01:57:08.858Z,101562.72
2023-05-15T01:59:37.535Z,101566.22
2023-05-15T02:02:07.417Z,101562.16
2023-05-15T02:04:34.603Z,101570.19
2023-05-15T02:07:05.652Z,101578.63
2023-05-15T02:09:33.397Z,101574.22
2023-05-15T02:12:04.269Z,101570.72
2023-05-15T02:14:32.097Z,101567.53
2023-05-15T02:16:58.528Z,101569.78
2023-05-15T02:19:25.140Z,101563.72
2023-05-15T02:21:51.585Z,101569.69
2023-05-15T02:24:17.986Z,101577.91
2023-05-15T02:27:17.669Z,101569.09
2023-05-15T02:30:18.552Z,101570.00
2023-05-15T02:32:59.295Z,101573.47
2023-05-15T02:35:38.146Z,101570.31
2023-05-15T02:38:11.801Z,101567.84
2023-05-15T02:40:40.216Z,101568.19
2023-05-15T02:43:08.549Z,101565.47
2023-05-15T02:45:35.538Z,101572.50
2023-05-15T02:48:03.938Z,101562.44
2023-05-15T02:50:30.911Z,101572.50
2023-05-15T02:53:04.353Z,101571.81
2023-05-15T02:55:31.255Z,101563.69
2023-05-15T02:57:58.813Z,101566.63
2023-05-15T03:00:25.653Z,101573.63
2023-05-15T03:02:52.123Z,101554.28
2023-05-15T03:05:18.701Z,101558.59
2023-05-15T03:07:45.191Z,101563.34
2023-05-15T03:10:11.774Z,101558.00
2023-05-15T03:12:38.902Z,101557.66
2023-05-15T03:15:08.909Z,101554.63
2023-05-15T03:17:35.328Z,101553.81
2023-05-15T03:20:01.955Z,101551.91
2023-05-15T03:22:28.330Z,101563.88
2023-05-15T03:24:54.789Z,101549.53
2023-05-15T03:27:21.239Z,101556.41
2023-05-15T03:29:49.166Z,101547.41
2023-05-15T03:32:15.535Z,101548.84
2023-05-15T03:34:42.154Z,101555.44
2023-05-15T03:37:08.925Z,101551.13
2023-05-15T03:39:35.633Z,101554.53
2023-05-15T03:42:02.609Z,101549.44
2023-05-15T03:44:29.619Z,101546.72
2023-05-15T03:46:56.257Z,101537.47
2023-05-15T03:49:22.780Z,101540.53
2023-05-15T03:51:49.313Z,101536.91
2023-05-15T03:54:15.928Z,101539.16
2023-05-15T03:56:42.609Z,101539.84
2023-05-15T03:59:09.064Z,101540.97
2023-05-15T04:01:43.557Z,101553.75
2023-05-15T04:04:13.884Z,101554.41
2023-05-15T04:06:40.351Z,101558.72
2023-05-15T04:09:06.915Z,101555.69
2023-05-15T04:11:34.818Z,101560.41
2023-05-15T04:14:01.382Z,101558.59
2023-05-15T04:16:27.776Z,101556.47
2023-05-15T04:18:54.369Z,101561.19
2023-05-15T04:21:20.912Z,101563.69
2023-05-15T04:23:47.641Z,101564.13
2023-05-15T04:26:14.372Z,101568.28
2023-05-15T04:28:46.847Z,101568.91
2023-05-15T04:31:19.279Z,101568.81
2023-05-15T04:33:46.084Z,101560.88
2023-05-15T04:36:12.650Z,101564.34
2023-05-15T04:38:39.197Z,101562.44
2023-05-15T04:41:05.622Z,101564.81
2023-05-15T04:43:32.055Z,101564.50
2023-05-15T04:45:58.498Z,101568.81
2023-05-15T04:48:25.098Z,101569.69
2023-05-15T04:50:52.055Z,101577.81
2023-05-15T04:53:18.406Z,101575.88
2023-05-15T04:55:44.841Z,101576.22
2023-05-15T04:58:11.490Z,101575.34
2023-05-15T05:00:39.055Z,101574.56
2023-05-15T05:03:05.729Z,101568.31
2023-05-15T05:05:32.297Z,101568.75
2023-05-15T05:07:58.706Z,101568.09
2023-05-15T05:10:25.248Z,101570.03
2023-05-15T05:12:51.668Z,101573.63
2023-05-15T05:15:18.276Z,101575.56
2023-05-15T05:17:44.892Z,101580.84
2023-05-15T05:20:13.081Z,101581.38
2023-05-15T05:22:40.940Z,101583.53
2023-05-15T05:25:08.020Z,101585.13
2023-05-15T05:27:34.637Z,101580.28
2023-05-15T05:30:01.051Z,101579.97
2023-05-15T05:32:27.588Z,101579.81
2023-05-15T05:34:54.022Z,101569.69
2023-05-15T05:37:20.490Z,101566.28
2023-05-15T05:39:47.411Z,101566.28
2023-05-15T05:42:13.812Z,101569.16
2023-05-15T05:44:40.217Z,101565.75
2023-05-15T05:47:06.988Z,101554.88
2023-05-15T05:49:33.484Z,101563.13
2023-05-15T05:52:06.177Z,101577.53
2023-05-15T05:54:32.757Z,101575.00
2023-05-15T05:56:59.228Z,101569.25
2023-05-15T05:59:25.850Z,101568.66
2023-05-15T06:01:52.376Z,101571.06
2023-05-15T06:04:19.060Z,101566.56
2023-05-15T06:06:46.710Z,101569.28
2023-05-15T06:09:13.158Z,101565.97
2023-05-15T06:11:39.735Z,101567.34
2023-05-15T06:14:08.356Z,101559.31
2023-05-15T06:16:35.622Z,101552.94
2023-05-15T06:19:02.132Z,101563.34
2023-05-15T06:21:28.766Z,101555.25
2023-05-15T06:23:55.527Z,101553.47
2023-05-15T06:26:22.363Z,101551.56
2023-05-15T06:28:49.088Z,101550.94
2023-05-15T06:31:15.812Z,101544.38
2023-05-15T06:33:42.219Z,101540.81
2023-05-15T06:36:08.895Z,101539.88
2023-05-15T06:38:35.475Z,101536.78
2023-05-15T06:41:02.013Z,101541.31
2023-05-15T06:43:28.467Z,101542.78
2023-05-15T06:45:54.977Z,101550.38
2023-05-15T06:48:21.541Z,101557.16
2023-05-15T06:50:47.951Z,101559.19
2023-05-15T06:53:14.694Z,101562.09
2023-05-15T06:55:41.323Z,101547.59
2023-05-15T06:58:07.840Z,101549.91
2023-05-15T07:00:34.476Z,101555.25
2023-05-15T07:03:00.991Z,101560.78
2023-05-15T07:05:27.612Z,101567.94
2023-05-15T07:07:54.155Z,101557.16
2023-05-15T07:10:20.703Z,101547.00
2023-05-15T07:12:47.275Z,101554.19
2023-05-15T07:15:13.866Z,101551.69
2023-05-15T07:17:40.365Z,101556.03
2023-05-15T07:20:07.578Z,101547.97
2023-05-15T07:22:38.791Z,101543.47
2023-05-15T07:25:11.341Z,101549.56
2023-05-15T07:27:37.804Z,101541.50
2023-05-15T07:30:04.569Z,101549.34
2023-05-15T07:32:31.064Z,101557.28
2023-05-15T07:34:57.704Z,101554.91
2023-05-15T07:37:24.849Z,101550.59
2023-05-15T07:39:51.881Z,101552.38
2023-05-15T07:42:18.319Z,101546.41
2023-05-15T07:44:46.514Z,101550.28
2023-05-15T07:47:14.579Z,101556.47
2023-05-15T07:49:41.321Z,101553.94
2023-05-15T07:52:07.741Z,101551.94
2023-05-15T07:54:34.096Z,101552.25
2023-05-15T07:57:01.414Z,101548.47
2023-05-15T07:59:28.044Z,101534.50
2023-05-15T08:01:54.507Z,101539.06
2023-05-15T08:04:20.944Z,101529.41
2023-05-15T08:06:47.448Z,101542.63
2023-05-15T08:09:13.915Z,101543.06
2023-05-15T08:11:40.573Z,101543.56
2023-05-15T08:14:07.081Z,101540.91
2023-05-15T08:16:33.837Z,101544.81
2023-05-15T08:19:04.779Z,101549.28
2023-05-15T08:21:32.270Z,101543.47
2023-05-15T08:24:00.185Z,101544.63
2023-05-15T08:26:27.173Z,101542.81
2023-05-15T08:28:53.540Z,101549.69
2023-05-15T08:31:20.153Z,101540.84
2023-05-15T08:33:46.806Z,101541.59
2023-05-15T08:36:14.271Z,101545.59
2023-05-15T08:38:40.689Z,101541.41
2023-05-15T08:41:18.178Z,101547.75
2023-05-15T08:43:47.471Z,101550.72
2023-05-15T08:46:14.142Z,101536.63
2023-05-15T08:48:42.233Z,101533.69
2023-05-15T08:51:10.605Z,101534.88
2023-05-15T08:53:37.293Z,101540.16
2023-05-15T08:56:04.386Z,101543.13
2023-05-15T08:58:32.069Z,101536.00
2023-05-15T09:00:59.178Z,101536.16
2023-05-15T09:03:26.430Z,101537.84
2023-05-15T09:05:53.307Z,101535.13
2023-05-15T09:08:22.308Z,101546.91
2023-05-15T09:10:49.267Z,101547.41
2023-05-15T09:13:15.879Z,101542.84
2023-05-15T09:15:42.624Z,101545.91
2023-05-15T09:18:09.861Z,101548.75
2023-05-15T09:20:37.802Z,101546.31
2023-05-15T09:23:06.289Z,101542.59
2023-05-15T09:25:39.835Z,101547.31
2023-05-15T09:28:09.572Z,101545.56
2023-05-15T09:30:39.896Z,101551.44
2023-05-15T09:33:07.026Z,101547.19
2023-05-15T09:35:40.619Z,101546.97
2023-05-15T09:38:12.622Z,101541.09
2023-05-15T09:40:43.332Z,101542.88
2023-05-15T09:43:11.846Z,101548.47
2023-05-15T09:45:38.261Z,101546.56
2023-05-15T09:48:06.876Z,101550.09
2023-05-15T09:50:38.660Z,101540.72
2023-05-15T09:53:06.025Z,101544.28
2023-05-15T09:55:34.689Z,101545.91
2023-05-15T09:58:08.389Z,101545.63
2023-05-15T10:00:35.887Z,101543.91
2023-05-15T10:03:04.355Z,101544.13
2023-05-15T10:05:42.529Z,101551.06
2023-05-15T10:08:10.805Z,101553.03
2023-05-15T10:10:37.282Z,101551.22
2023-05-15T10:13:05.841Z,101554.81
2023-05-15T10:15:33.104Z,101553.94
2023-05-15T10:18:00.684Z,101557.72
2023-05-15T10:20:27.730Z,101560.69
2023-05-15T10:22:56.715Z,101560.31
2023-05-15T10:25:41.262Z,101564.00
2023-05-15T10:28:11.979Z,101569.56
2023-05-15T10:30:39.416Z,101570.91
2023-05-15T10:33:07.553Z,101577.00
2023-05-15T10:35:34.973Z,101573.16
2023-05-15T10:38:04.301Z,101579.91
2023-05-15T10:40:30.859Z,101576.09
2023-05-15T10:43:00.373Z,101575.00
2023-05-15T10:45:28.052Z,101566.03
2023-05-15T10:47:55.703Z,101575.91
2023-05-15T10:50:23.035Z,101573.16
2023-05-15T10:52:52.856Z,101570.44
2023-05-15T10:55:22.159Z,101565.00
2023-05-15T10:57:48.857Z,101565.78
2023-05-15T11:00:33.726Z,101573.25
2023-05-15T11:03:01.202Z,101561.47
2023-05-15T11:05:28.043Z,101570.09
2023-05-15T11:08:17.750Z,101568.53
2023-05-15T11:10:44.925Z,101557.56
2023-05-15T11:13:12.206Z,101559.94
2023-05-15T11:15:46.416Z,101559.13
2023-05-15T11:18:13.300Z,101559.91
2023-05-15T11:20:52.115Z,101566.59
2023-05-15T11:23:22.523Z,101569.72
2023-05-15T11:25:58.559Z,101566.97
2023-05-15T11:28:25.927Z,101564.22
2023-05-15T11:30:59.262Z,101572.81
2023-05-15T11:33:29.810Z,101578.28
2023-05-15T11:35:59.045Z,101565.69
2023-05-15T11:38:26.511Z,101571.13
2023-05-15T11:40:56.551Z,101571.50
2023-05-15T11:43:27.932Z,101563.72
2023-05-15T11:45:57.836Z,101559.03
2023-05-15T11:48:27.824Z,101555.97
2023-05-15T11:50:54.233Z,101563.00
2023-05-15T11:53:21.330Z,101555.94
2023-05-15T11:55:47.775Z,101556.72
2023-05-15T11:58:16.689Z,101562.22
2023-05-15T12:00:45.658Z,101556.34
2023-05-15T12:03:19.269Z,101553.56
2023-05-15T12:05:57.556Z,101549.66
2023-05-15T12:08:26.846Z,101558.72
2023-05-15T12:10:53.371Z,101555.22
2023-05-15T12:13:21.260Z,101559.91
2023-05-15T12:15:47.650Z,101560.69
2023-05-15T12:18:14.355Z,101555.19
2023-05-15T12:20:48.283Z,101564.97
2023-05-15T12:23:16.832Z,101555.53
2023-05-15T12:25:46.319Z,101553.56
2023-05-15T12:28:13.557Z,101549.97
2023-05-15T12:30:40.368Z,101548.28
2023-05-15T12:33:08.472Z,101551.25
2023-05-15T12:35:42.634Z,101545.19
2023-05-15T12:38:09.274Z,101547.66
2023-05-15T12:40:37.208Z,101548.41
2023-05-15T12:43:07.739Z,101539.56
2023-05-15T12:45:37.520Z,101540.38
2023-05-15T12:48:04.860Z,101541.16
2023-05-15T12:50:35.155Z,101541.94
2023-05-15T12:53:03.698Z,101539.91
2023-05-15T12:55:32.532Z,101535.59
2023-05-15T12:58:04.546Z,101532.75
2023-05-15T13:00:32.235Z,101531.50
2023-05-15T13:02:59.390Z,101531.72
2023-05-15T13:05:26.907Z,101529.88
2023-05-15T13:07:54.245Z,101534.56
2023-05-15T13:10:25.044Z,101536.66
2023-05-15T13:12:53.654Z,101535.22
2023-05-15T13:15:31.015Z,101534.03
2023-05-15T13:18:07.918Z,101528.97
2023-05-15T13:20:38.804Z,101531.91
2023-05-15T13:23:05.507Z,101535.38
2023-05-15T13:25:32.534Z,101531.41
2023-05-15T13:28:00.587Z,101532.44
2023-05-15T13:30:28.438Z,101538.06
2023-05-15T13:32:55.971Z,101531.13
2023-05-15T13:35:23.202Z,101534.00
2023-05-15T13:37:50.086Z,101535.97
2023-05-15T13:40:16.930Z,101540.03
2023-05-15T13:42:44.366Z,101541.69
2023-05-15T13:45:12.941Z,101541.34
2023-05-15T13:47:39.873Z,101538.25
2023-05-15T13:50:07.920Z,101552.44
2023-05-15T13:52:35.109Z,101550.50
2023-05-15T13:55:01.906Z,101551.69
2023-05-15T13:57:28.673Z,101550.88
2023-05-15T13:59:55.253Z,101560.59
2023-05-15T14:02:23.500Z,101551.09
2023-05-15T14:04:50.012Z,101549.41
2023-05-15T14:07:16.457Z,101549.41
2023-05-15T14:09:42.854Z,101542.50
2023-05-15T14:12:09.978Z,101553.50
2023-05-15T14:14:36.965Z,101555.50
2023-05-15T14:17:03.814Z,101553.97
2023-05-15T14:19:30.340Z,101550.47
2023-05-15T14:21:57.074Z,101550.13
2023-05-15T14:24:23.536Z,101550.53
2023-05-15T14:26:50.175Z,101545.00
2023-05-15T14:29:16.768Z,101550.44
2023-05-15T14:31:43.403Z,101566.13
2023-05-15T14:34:09.811Z,101571.28
2023-05-15T14:36:36.385Z,101567.75
2023-05-15T14:39:03.215Z,101570.09
2023-05-15T14:41:29.865Z,101569.69
2023-05-15T14:43:56.384Z,101573.63
2023-05-15T14:46:22.870Z,101564.59
2023-05-15T14:48:49.501Z,101571.28
2023-05-15T14:51:18.353Z,101570.06
2023-05-15T14:53:46.007Z,101584.13
2023-05-15T14:56:12.506Z,101579.41
2023-05-15T14:58:39.176Z,101582.41
2023-05-15T15:01:05.669Z,101578.00
2023-05-15T15:03:33.994Z,101584.56
2023-05-15T15:06:00.759Z,101584.16
2023-05-15T15:08:27.444Z,101588.75
2023-05-15T15:10:53.847Z,101591.06
2023-05-15T15:13:20.433Z,101589.47
2023-05-15T15:15:46.927Z,101584.84
2023-05-15T15:18:13.394Z,101582.53
2023-05-15T15:20:41.653Z,101589.88
2023-05-15T15:23:08.293Z,101583.16
2023-05-15T15:25:34.837Z,101583.78
2023-05-15T15:28:02.317Z,101591.91
2023-05-15T15:30:28.897Z,101591.00
2023-05-15T15:32:55.862Z,101588.16
2023-05-15T15:35:22.420Z,101585.41
2023-05-15T15:37:48.917Z,101585.78
2023-05-15T15:40:15.806Z,101587.44
2023-05-15T15:42:42.308Z,101597.63
2023-05-15T15:45:08.862Z,101589.88
2023-05-15T15:47:35.371Z,101593.41
2023-05-15T15:50:01.847Z,101598.88
2023-05-15T15:52:28.427Z,101596.59
2023-05-15T15:54:55.057Z,101599.31
2023-05-15T15:57:21.898Z,101612.47
2023-05-15T15:59:49.335Z,101617.88
2023-05-15T16:02:16.775Z,101617.72
2023-05-15T16:04:43.309Z,101616.44
2023-05-15T16:07:09.907Z,101612.81
2023-05-15T16:09:36.353Z,101617.34
2023-05-15T16:12:03.590Z,101618.06
2023-05-15T16:14:31.645Z,101619.16
2023-05-15T16:16:58.670Z,101616.41
2023-05-15T16:19:25.198Z,101623.75
2023-05-15T16:21:51.621Z,101618.97
2023-05-15T16:24:18.274Z,101626.66
2023-05-15T16:26:44.795Z,101630.91
2023-05-15T16:29:11.208Z,101639.00
2023-05-15T16:31:38.357Z,101627.31
2023-05-15T16:34:05.084Z,101626.88
2023-05-15T16:36:32.162Z,101625.03
2023-05-15T16:39:00.568Z,101625.25
2023-05-15T16:41:27.218Z,101624.13
2023-05-15T16:43:53.985Z,101623.38
2023-05-15T16:46:20.910Z,101624.75
2023-05-15T16:48:47.401Z,101624.69
2023-05-15T16:51:13.941Z,101628.94
2023-05-15T16:53:40.893Z,101629.25
2023-05-15T16:56:07.583Z,101625.34
2023-05-15T16:58:34.726Z,101633.22
2023-05-15T17:01:01.290Z,101630.97
2023-05-15T17:03:27.849Z,101629.72
2023-05-15T17:05:54.757Z,101637.13
2023-05-15T17:08:21.244Z,101634.06
2023-05-15T17:10:47.629Z,101637.91
2023-05-15T17:13:14.646Z,101635.06
2023-05-15T17:15:41.098Z,101634.59
2023-05-15T17:18:07.683Z,101644.31
2023-05-15T17:20:34.525Z,101640.75
2023-05-15T17:23:01.103Z,101640.69
2023-05-15T17:25:27.905Z,101641.47
2023-05-15T17:27:54.516Z,101648.81
2023-05-15T17:30:21.194Z,101650.31
2023-05-15T17:32:47.808Z,101645.66
2023-05-15T17:35:15.659Z,101648.75
2023-05-15T17:37:42.626Z,101656.13
2023-05-15T17:40:09.448Z,101653.84
2023-05-15T17:42:36.286Z,101658.44
2023-05-15T17:45:02.952Z,101662.41
2023-05-15T17:47:29.509Z,101660.81
2023-05-15T17:49:55.949Z,101666.09
2023-05-15T17:52:22.512Z,101675.91
2023-05-15T17:54:49.107Z,101672.84
2023-05-15T17:57:15.613Z,101673.78
2023-05-15T17:59:42.045Z,101680.53
2023-05-15T18:02:08.713Z,101679.63
2023-05-15T18:04:35.456Z,101686.47
2023-05-15T18:07:02.041Z,101697.34
2023-05-15T18:09:28.422Z,101692.25
2023-05-15T18:11:54.790Z,101696.50
2023-05-15T18:14:21.437Z,101703.38
2023-05-15T18:16:47.806Z,101699.72
2023-05-15T18:19:14.925Z,101698.03
2023-05-15T18:21:41.444Z,101702.22
2023-05-15T18:24:08.047Z,101714.94
2023-05-15T18:26:34.781Z,101717.22
2023-05-15T18:29:01.372Z,101715.56
2023-05-15T18:31:27.836Z,101727.63
2023-05-15T18:33:54.249Z,101725.59
2023-05-15T18:36:20.878Z,101729.72
2023-05-15T18:38:47.413Z,101730.78
2023-05-15T18:41:13.976Z,101733.16
2023-05-15T18:43:40.453Z,101734.72
2023-05-15T18:46:06.845Z,101740.09
2023-05-15T18:48:33.880Z,101738.78
2023-05-15T18:51:00.377Z,101735.19
2023-05-15T18:53:26.974Z,101737.38
2023-05-15T18:55:53.879Z,101735.97
2023-05-15T18:58:20.845Z,101737.75
2023-05-15T19:00:47.330Z,101732.47
2023-05-15T19:03:13.972Z,101739.97
2023-05-15T19:05:40.876Z,101741.50
2023-05-15T19:08:07.275Z,101737.78
2023-05-15T19:10:33.825Z,101741.13
2023-05-15T19:13:01.022Z,101745.19
2023-05-15T19:15:28.127Z,101746.22
2023-05-15T19:17:55.437Z,101749.19
2023-05-15T19:20:22.033Z,101751.38
2023-05-15T19:22:48.749Z,101758.75
2023-05-15T19:25:15.302Z,101755.13
2023-05-15T19:27:41.919Z,101758.44
2023-05-15T19:30:09.956Z,101757.28
2023-05-15T19:32:37.269Z,101765.22
2023-05-15T19:35:04.982Z,101767.16
2023-05-15T19:37:31.529Z,101769.88
2023-05-15T19:39:58.323Z,101764.31
2023-05-15T19:42:24.951Z,101767.53
2023-05-15T19:47:31.898Z,101775.94
2023-05-15T19:49:58.352Z,101782.97
2023-05-15T19:52:44.745Z,101788.09
2023-05-15T19:55:11.972Z,101788.22
2023-05-15T19:57:40.349Z,101789.13
2023-05-15T20:00:08.029Z,101795.44
2023-05-15T20:02:34.585Z,101797.94
2023-05-15T20:05:01.236Z,101807.34
2023-05-15T20:07:27.649Z,101803.81
2023-05-15T20:09:55.622Z,101818.41
2023-05-15T20:12:22.105Z,101822.91
2023-05-15T20:14:49.761Z,101830.16
2023-05-15T20:17:17.005Z,101845.53
2023-05-15T20:19:43.639Z,101850.13
2023-05-15T20:22:10.245Z,101856.19
2023-05-15T20:24:37.909Z,101856.88
2023-05-15T20:27:04.697Z,101863.09
2023-05-15T20:29:31.317Z,101866.03
2023-05-15T20:31:58.154Z,101869.06
2023-05-15T20:34:24.896Z,101874.16
2023-05-15T20:36:52.702Z,101870.66
2023-05-15T20:39:20.005Z,101865.91
2023-05-15T20:41:46.410Z,101868.28
2023-05-15T20:44:12.946Z,101867.34
2023-05-15T20:46:40.935Z,101878.47
2023-05-15T20:49:07.785Z,101876.53
2023-05-15T20:51:34.201Z,101885.66
2023-05-15T20:54:00.797Z,101882.19
2023-05-15T20:56:27.539Z,101885.88
2023-05-15T20:58:54.098Z,101888.22
2023-05-15T21:01:20.508Z,101900.72
2023-05-15T21:03:47.142Z,101886.22
2023-05-15T21:06:14.413Z,101895.84
2023-05-15T21:08:41.028Z,101894.81
2023-05-15T21:11:07.519Z,101894.81
2023-05-15T21:13:35.028Z,101907.16
2023-05-15T21:16:01.622Z,101903.66
2023-05-15T21:18:27.997Z,101907.59
2023-05-15T21:20:54.369Z,101912.88
2023-05-15T21:23:21.322Z,101905.75
2023-05-15T21:25:47.904Z,101900.81
2023-05-15T21:28:14.550Z,101909.06
2023-05-15T21:30:40.946Z,101903.44
2023-05-15T21:33:07.548Z,101915.53
2023-05-15T21:35:34.038Z,101914.41
2023-05-15T21:38:00.915Z,101922.22
2023-05-15T21:40:27.821Z,101923.66
2023-05-15T21:42:54.623Z,101927.16
2023-05-15T21:45:21.301Z,101924.13
2023-05-15T21:47:47.698Z,101927.50
2023-05-15T21:50:14.260Z,101924.19
2023-05-15T21:52:40.810Z,101920.69
2023-05-15T21:55:08.115Z,101925.53
2023-05-15T21:57:34.549Z,101927.28
2023-05-15T22:00:01.048Z,101930.66
2023-05-15T22:02:27.632Z,101924.78
2023-05-15T22:04:54.081Z,101922.25
2023-05-15T22:07:20.669Z,101923.72
2023-05-15T22:09:47.030Z,101922.13
2023-05-15T22:12:13.587Z,101929.81
2023-05-15T22:14:57.050Z,101936.69
2023-05-15T22:17:27.277Z,101936.19
2023-05-15T22:19:54.093Z,101930.78
2023-05-15T22:22:20.903Z,101932.72
2023-05-15T22:24:47.992Z,101936.69
2023-05-15T22:27:16.639Z,101938.41
2023-05-15T22:29:43.358Z,101937.75
2023-05-15T22:32:09.882Z,101939.34
2023-05-15T22:34:36.427Z,101938.34
2023-05-15T22:37:03.158Z,101926.50
2023-05-15T22:39:29.791Z,101930.81
2023-05-15T22:41:56.219Z,101936.25
2023-05-15T22:44:23.040Z,101938.97
2023-05-15T22:46:49.740Z,101942.44
2023-05-15T22:49:19.442Z,101945.50
2023-05-15T22:51:46.626Z,101946.78
2023-05-15T22:54:13.001Z,101952.91
2023-05-15T22:56:39.498Z,101954.19
2023-05-15T22:59:06.154Z,101954.06
2023-05-15T23:01:32.615Z,101950.44
2023-05-15T23:03:59.055Z,101959.53
2023-05-15T23:06:25.630Z,101967.25
2023-05-15T23:08:52.442Z,101968.41
2023-05-15T23:11:19.114Z,101965.09
2023-05-15T23:13:45.705Z,101964.94
2023-05-15T23:16:12.247Z,101965.72
2023-05-15T23:18:38.837Z,101969.53
2023-05-15T23:21:05.463Z,101965.59
2023-05-15T23:23:32.058Z,101973.72
2023-05-15T23:25:58.786Z,101963.53
2023-05-15T23:28:25.523Z,101968.16
2023-05-15T23:30:53.833Z,101976.91
2023-05-15T23:33:20.465Z,101978.50
2023-05-15T23:35:47.188Z,101970.53
2023-05-15T23:38:13.725Z,101971.00
2023-05-15T23:40:40.279Z,101974.03
2023-05-15T23:43:07.282Z,101978.84
2023-05-15T23:45:33.686Z,101976.94
2023-05-15T23:48:00.195Z,101987.63
2023-05-15T23:50:27.098Z,101992.09
2023-05-15T23:52:53.874Z,101988.91
2023-05-15T23:55:20.310Z,101991.47
2023-05-15T23:57:48.251Z,101984.00
